createdAt,value
2017-11-15T00:01:22.361Z,57.10
2017-11-15T00:03:50.613Z,53.83
2017-11-15T00:06:18.098Z,58.95
2017-11-15T00:08:45.563Z,59.97
2017-11-15T00:11:13.022Z,53.15
2017-11-15T00:13:40.501Z,50.10
2017-11-15T00:16:07.954Z,52.42
2017-11-15T00:18:35.457Z,58.53
2017-11-15T00:21:02.997Z,69.28
2017-11-15T00:23:30.452Z,61.95
2017-11-15T00:25:58.707Z,64.55
2017-11-15T00:28:26.173Z,62.03
2017-11-15T00:30:54.385Z,60.60
2017-11-15T00:33:21.841Z,50.78
2017-11-15T00:35:49.395Z,61.13
2017-11-15T00:38:17.618Z,58.72
2017-11-15T00:40:45.091Z,58.33
2017-11-15T00:43:12.638Z,57.85
2017-11-15T00:45:40.906Z,53.60
2017-11-15T00:48:09.122Z,65.47
2017-11-15T00:50:36.693Z,62.17
2017-11-15T00:53:04.157Z,59.20
2017-11-15T00:55:32.397Z,63.00
2017-11-15T00:57:59.941Z,55.47
2017-11-15T01:00:27.489Z,56.88
2017-11-15T01:02:55.029Z,62.08
2017-11-15T01:05:22.576Z,58.90
2017-11-15T01:07:50.117Z,59.67
2017-11-15T01:10:18.369Z,62.58
2017-11-15T01:12:46.652Z,53.00
2017-11-15T01:15:14.884Z,55.97
2017-11-15T01:17:42.421Z,68.95
2017-11-15T01:20:09.890Z,64.80
2017-11-15T01:22:38.185Z,59.72
2017-11-15T01:25:05.648Z,67.70
2017-11-15T01:27:33.104Z,65.90
2017-11-15T01:30:00.553Z,56.95
2017-11-15T01:32:28.033Z,67.62
2017-11-15T01:34:56.257Z,59.08
2017-11-15T01:37:23.721Z,60.38
2017-11-15T01:39:51.942Z,53.60
2017-11-15T01:42:19.513Z,56.17
2017-11-15T01:44:46.980Z,64.25
2017-11-15T01:47:15.272Z,64.87
2017-11-15T01:49:42.772Z,65.68
2017-11-15T01:52:11.022Z,60.22
2017-11-15T01:54:38.474Z,59.42
2017-11-15T01:57:06.822Z,64.60
2017-11-15T01:59:34.276Z,58.35
2017-11-15T02:02:02.520Z,63.42
2017-11-15T02:04:30.069Z,62.75
2017-11-15T02:06:58.290Z,59.67
2017-11-15T02:09:25.771Z,52.97
2017-11-15T02:11:53.313Z,61.28
2017-11-15T02:14:20.770Z,68.65
2017-11-15T02:16:49.008Z,61.10
2017-11-15T02:19:16.557Z,67.30
2017-11-15T02:21:44.099Z,71.95
2017-11-15T02:24:11.648Z,59.10
2017-11-15T02:26:39.103Z,72.55
2017-11-15T02:29:07.346Z,61.28
2017-11-15T02:31:34.793Z,61.88
2017-11-15T02:34:03.009Z,57.75
2017-11-15T02:36:30.490Z,67.78
2017-11-15T02:38:58.031Z,56.95
2017-11-15T02:41:25.573Z,68.18
2017-11-15T02:43:53.121Z,63.13
2017-11-15T02:46:20.665Z,60.70
2017-11-15T02:48:48.131Z,55.50
2017-11-15T02:51:15.650Z,65.05
2017-11-15T02:53:43.097Z,67.85
2017-11-15T02:56:11.354Z,66.22
2017-11-15T02:58:38.893Z,59.60
2017-11-15T03:01:06.442Z,68.82
2017-11-15T03:03:33.898Z,60.05
2017-11-15T03:06:01.389Z,61.10
2017-11-15T03:08:28.843Z,63.90
2017-11-15T03:10:56.294Z,60.35
2017-11-15T03:13:24.665Z,71.57
2017-11-15T03:15:52.123Z,67.03
2017-11-15T03:18:20.366Z,61.05
2017-11-15T03:20:47.822Z,60.22
2017-11-15T03:23:16.076Z,63.58
2017-11-15T03:25:44.333Z,64.47
2017-11-15T03:28:11.786Z,57.45
2017-11-15T03:30:40.033Z,62.67
2017-11-15T03:33:08.254Z,79.30
2017-11-15T03:35:35.709Z,65.68
2017-11-15T03:38:03.189Z,63.85
2017-11-15T03:40:31.405Z,69.57
2017-11-15T03:42:58.856Z,63.50
2017-11-15T03:45:26.341Z,64.60
2017-11-15T03:47:53.860Z,74.20
2017-11-15T03:50:21.406Z,65.93
2017-11-15T03:52:48.874Z,62.08
2017-11-15T03:55:16.323Z,62.08
2017-11-15T03:57:43.832Z,67.47
2017-11-15T04:00:12.065Z,61.33
2017-11-15T04:02:39.513Z,73.60
2017-11-15T04:05:07.078Z,54.75
2017-11-15T04:07:35.303Z,75.03
2017-11-15T04:10:02.782Z,77.47
2017-11-15T04:12:30.993Z,71.37
2017-11-15T04:14:58.483Z,75.03
2017-11-15T04:17:26.018Z,65.85
2017-11-15T04:19:53.565Z,72.05
2017-11-15T04:22:21.110Z,76.60
2017-11-15T04:24:48.651Z,64.07
2017-11-15T04:27:16.105Z,65.62
2017-11-15T04:29:44.324Z,77.87
2017-11-15T04:32:11.845Z,77.75
2017-11-15T04:34:39.294Z,73.57
2017-11-15T04:37:06.749Z,68.00
2017-11-15T04:39:34.577Z,69.07
2017-11-15T04:42:02.035Z,77.43
2017-11-15T04:44:29.496Z,77.15
2017-11-15T04:46:56.951Z,75.20
2017-11-15T04:49:24.445Z,74.07
2017-11-15T04:51:51.893Z,65.95
2017-11-15T04:54:19.351Z,70.40
2017-11-15T04:56:46.825Z,85.82
2017-11-15T04:59:14.357Z,85.38
2017-11-15T05:01:41.901Z,77.85
2017-11-15T05:04:09.441Z,64.43
2017-11-15T05:06:36.905Z,67.87
2017-11-15T05:09:05.130Z,73.60
2017-11-15T05:11:32.584Z,61.58
2017-11-15T05:14:00.134Z,69.87
2017-11-15T05:16:28.349Z,61.67
2017-11-15T05:18:55.829Z,68.50
2017-11-15T05:21:23.381Z,57.10
2017-11-15T05:23:51.597Z,67.25
2017-11-15T05:26:19.077Z,67.18
2017-11-15T05:28:46.587Z,56.42
2017-11-15T05:31:14.069Z,63.30
2017-11-15T05:33:42.292Z,65.75
2017-11-15T05:36:09.745Z,59.10
2017-11-15T05:38:37.301Z,65.80
2017-11-15T05:41:04.849Z,66.35
2017-11-15T05:43:32.301Z,57.95
2017-11-15T05:46:00.554Z,60.33
2017-11-15T05:48:28.097Z,64.20
2017-11-15T05:50:55.633Z,55.08
2017-11-15T05:53:23.088Z,63.20
2017-11-15T05:55:51.328Z,56.92
2017-11-15T05:58:19.545Z,50.85
2017-11-15T06:00:47.071Z,53.42
2017-11-15T06:03:14.589Z,47.47
2017-11-15T06:05:42.133Z,54.97
2017-11-15T06:08:09.670Z,49.40
2017-11-15T06:10:38.002Z,48.28
2017-11-15T06:13:05.564Z,49.92
2017-11-15T06:15:33.831Z,44.30
2017-11-15T06:18:02.262Z,46.08
2017-11-15T06:20:29.741Z,41.30
2017-11-15T06:22:57.241Z,44.90
2017-11-15T06:25:25.575Z,41.17
2017-11-15T06:27:52.977Z,40.78
2017-11-15T06:30:20.461Z,41.17
2017-11-15T06:32:48.884Z,44.38
2017-11-15T06:35:17.161Z,42.17
2017-11-15T06:37:44.605Z,42.30
2017-11-15T06:40:12.860Z,40.90
2017-11-15T06:42:40.396Z,38.70
2017-11-15T06:45:07.946Z,40.90
2017-11-15T06:47:36.209Z,45.58
2017-11-15T06:50:04.460Z,39.60
2017-11-15T06:52:32.009Z,41.35
2017-11-15T06:54:59.555Z,44.25
2017-11-15T06:57:27.813Z,47.55
2017-11-15T06:59:56.070Z,41.72
2017-11-15T07:02:23.618Z,41.70
2017-11-15T07:04:51.097Z,42.28
2017-11-15T07:07:18.601Z,39.40
2017-11-15T07:09:46.155Z,47.70
2017-11-15T07:12:14.406Z,46.60
2017-11-15T07:14:41.955Z,45.30
2017-11-15T07:17:10.255Z,48.70
2017-11-15T07:19:37.746Z,51.67
2017-11-15T07:22:05.293Z,49.45
2017-11-15T07:24:32.750Z,45.72
2017-11-15T07:27:00.993Z,39.13
2017-11-15T07:29:28.454Z,39.38
2017-11-15T07:31:55.977Z,43.30
2017-11-15T07:34:23.441Z,46.78
2017-11-15T07:36:51.689Z,45.35
2017-11-15T07:39:19.142Z,44.25
2017-11-15T07:41:47.385Z,40.85
2017-11-15T07:44:14.862Z,44.50
2017-11-15T07:46:42.313Z,40.75
2017-11-15T07:49:09.810Z,40.47
2017-11-15T07:51:37.356Z,40.45
2017-11-15T07:54:05.611Z,48.75
2017-11-15T07:56:33.154Z,42.33
2017-11-15T07:59:00.694Z,42.15
2017-11-15T08:01:28.155Z,42.95
2017-11-15T08:03:56.401Z,38.90
2017-11-15T08:06:23.945Z,37.08
2017-11-15T08:08:51.429Z,37.08
2017-11-15T08:11:18.882Z,39.40
2017-11-15T08:13:46.368Z,37.90
2017-11-15T08:16:13.866Z,36.90
2017-11-15T08:18:41.318Z,38.15
2017-11-15T08:21:08.816Z,37.55
2017-11-15T08:23:37.061Z,39.80
2017-11-15T08:26:05.320Z,38.13
2017-11-15T08:28:33.550Z,39.05
2017-11-15T08:31:01.029Z,35.47
2017-11-15T08:33:29.382Z,35.53
2017-11-15T08:35:56.831Z,39.42
2017-11-15T08:38:25.050Z,34.70
2017-11-15T08:40:52.622Z,47.58
2017-11-15T08:43:20.171Z,38.33
2017-11-15T08:45:47.641Z,37.78
2017-11-15T08:48:15.154Z,40.63
2017-11-15T08:50:42.698Z,37.80
2017-11-15T08:53:10.241Z,44.45
2017-11-15T08:55:38.501Z,40.15
2017-11-15T08:58:06.046Z,43.92
2017-11-15T09:00:33.496Z,45.35
2017-11-15T09:03:01.727Z,44.38
2017-11-15T09:05:29.181Z,39.10
2017-11-15T09:07:56.650Z,40.85
2017-11-15T09:10:24.901Z,39.63
2017-11-15T09:12:53.117Z,37.85
2017-11-15T09:15:20.570Z,39.80
2017-11-15T09:17:48.071Z,44.15
2017-11-15T09:20:15.577Z,37.28
2017-11-15T09:22:43.044Z,35.72
2017-11-15T09:25:10.557Z,40.08
2017-11-15T09:27:38.107Z,43.00
2017-11-15T09:30:05.641Z,32.67
2017-11-15T09:32:33.192Z,35.80
2017-11-15T09:35:01.445Z,36.30
2017-11-15T09:37:28.927Z,35.15
2017-11-15T09:39:56.383Z,38.65
2017-11-15T09:42:23.873Z,35.10
2017-11-15T09:44:51.338Z,45.03
2017-11-15T09:47:18.801Z,43.63
2017-11-15T09:49:46.257Z,39.70
2017-11-15T09:52:13.713Z,36.22
2017-11-15T09:54:41.289Z,37.22
2017-11-15T09:57:08.834Z,36.33
2017-11-15T09:59:37.061Z,38.58
2017-11-15T10:02:04.557Z,41.97
2017-11-15T10:04:32.092Z,42.42
2017-11-15T10:07:00.335Z,39.28
2017-11-15T10:09:28.589Z,38.53
2017-11-15T10:11:56.139Z,36.78
2017-11-15T10:14:23.685Z,35.00
2017-11-15T10:16:51.141Z,35.15
2017-11-15T10:19:19.486Z,35.45
2017-11-15T10:21:46.937Z,41.47
2017-11-15T10:24:15.174Z,38.92
2017-11-15T10:26:42.671Z,37.88
2017-11-15T10:29:10.130Z,38.60
2017-11-15T10:31:37.599Z,32.25
2017-11-15T10:34:05.153Z,36.63
2017-11-15T10:36:32.697Z,34.30
2017-11-15T10:39:00.153Z,37.33
2017-11-15T10:41:28.509Z,37.75
2017-11-15T10:43:56.054Z,39.70
2017-11-15T10:46:24.302Z,40.38
2017-11-15T10:48:51.776Z,32.38
2017-11-15T10:51:19.393Z,37.13
2017-11-15T10:53:47.647Z,37.33
2017-11-15T10:56:15.110Z,42.58
2017-11-15T10:58:43.337Z,37.38
2017-11-15T11:01:10.897Z,35.97
2017-11-15T11:03:39.204Z,35.33
2017-11-15T11:06:06.674Z,37.97
2017-11-15T11:08:34.141Z,33.20
2017-11-15T11:11:02.401Z,34.13
2017-11-15T11:13:30.662Z,34.35
2017-11-15T11:15:58.926Z,35.38
2017-11-15T11:18:27.182Z,28.98
2017-11-15T11:20:54.720Z,35.42
2017-11-15T11:23:22.269Z,33.00
2017-11-15T11:25:49.821Z,34.55
2017-11-15T11:28:18.188Z,34.60
2017-11-15T11:30:46.437Z,34.03
2017-11-15T11:33:14.669Z,33.80
2017-11-15T11:35:42.142Z,33.72
2017-11-15T11:38:10.369Z,32.90
2017-11-15T11:40:37.838Z,34.92
2017-11-15T11:43:06.103Z,38.60
2017-11-15T11:45:34.336Z,38.88
2017-11-15T11:48:02.587Z,30.62
2017-11-15T11:50:30.061Z,34.30
2017-11-15T11:52:58.289Z,34.28
2017-11-15T11:55:25.775Z,34.97
2017-11-15T11:57:54.047Z,32.42
2017-11-15T12:00:22.338Z,33.80
2017-11-15T12:02:49.834Z,37.28
2017-11-15T12:05:18.062Z,34.78
2017-11-15T12:07:45.629Z,30.52
2017-11-15T12:10:13.872Z,26.98
2017-11-15T12:12:41.434Z,29.33
2017-11-15T12:15:09.653Z,30.98
2017-11-15T12:17:37.133Z,31.48
2017-11-15T12:20:04.627Z,31.73
2017-11-15T12:22:32.080Z,26.23
2017-11-15T12:24:59.563Z,30.23
2017-11-15T12:27:27.821Z,30.92
2017-11-15T12:29:55.285Z,26.08
2017-11-15T12:32:22.745Z,24.08
2017-11-15T12:34:50.245Z,27.08
2017-11-15T12:37:17.790Z,21.77
2017-11-15T12:39:46.053Z,25.67
2017-11-15T12:42:14.309Z,26.33
2017-11-15T12:44:41.859Z,26.95
2017-11-15T12:47:10.113Z,28.75
2017-11-15T12:49:38.373Z,28.85
2017-11-15T12:52:05.928Z,30.42
2017-11-15T12:54:34.183Z,31.48
2017-11-15T12:57:02.433Z,28.70
2017-11-15T12:59:31.414Z,30.30
2017-11-15T13:01:59.646Z,32.83
2017-11-15T13:04:27.128Z,33.97
2017-11-15T13:06:55.358Z,30.12
2017-11-15T13:09:22.823Z,28.75
2017-11-15T13:11:51.082Z,33.65
2017-11-15T13:14:19.310Z,33.55
2017-11-15T13:16:46.787Z,33.25
2017-11-15T13:19:15.025Z,30.45
2017-11-15T13:21:43.989Z,34.00
2017-11-15T13:24:11.449Z,30.95
2017-11-15T13:26:38.997Z,25.83
2017-11-15T13:29:06.461Z,29.20
2017-11-15T13:31:34.688Z,31.40
2017-11-15T13:34:02.247Z,29.37
2017-11-15T13:36:30.505Z,27.70
2017-11-15T13:38:58.045Z,31.30
2017-11-15T13:41:25.686Z,31.85
2017-11-15T13:43:53.238Z,31.12
2017-11-15T13:46:21.504Z,33.50
2017-11-15T13:48:49.761Z,26.30
2017-11-15T13:51:18.017Z,31.58
2017-11-15T13:53:45.489Z,31.75
2017-11-15T13:56:13.008Z,34.97
2017-11-15T13:58:41.266Z,32.80
2017-11-15T14:01:08.742Z,35.25
2017-11-15T14:03:36.206Z,30.67
2017-11-15T14:06:03.691Z,31.80
2017-11-15T14:08:31.241Z,26.00
2017-11-15T14:10:59.464Z,30.95
2017-11-15T14:13:26.933Z,29.27
2017-11-15T14:15:54.481Z,26.05
2017-11-15T14:18:22.741Z,26.33
2017-11-15T14:20:50.966Z,26.55
2017-11-15T14:23:18.430Z,25.88
2017-11-15T14:25:45.986Z,21.75
2017-11-15T14:28:14.235Z,25.92
2017-11-15T14:30:41.765Z,23.08
2017-11-15T14:33:09.225Z,25.23
2017-11-15T14:35:37.471Z,29.25
2017-11-15T14:38:05.029Z,26.83
2017-11-15T14:40:32.506Z,27.42
2017-11-15T14:43:00.028Z,29.08
2017-11-15T14:45:28.281Z,27.45
2017-11-15T14:47:56.549Z,29.60
2017-11-15T14:50:24.901Z,26.37
2017-11-15T14:52:53.165Z,27.27
2017-11-15T14:55:21.518Z,28.98
2017-11-15T14:57:48.977Z,25.27
2017-11-15T15:00:17.220Z,31.17
2017-11-15T15:02:45.585Z,29.90
2017-11-15T15:05:13.849Z,28.58
2017-11-15T15:07:42.108Z,33.78
2017-11-15T15:10:10.375Z,31.80
2017-11-15T15:12:38.612Z,31.45
2017-11-15T15:15:06.066Z,29.92
2017-11-15T15:17:33.562Z,29.40
2017-11-15T15:20:01.021Z,36.28
2017-11-15T15:22:28.497Z,29.92
2017-11-15T15:24:56.859Z,29.58
2017-11-15T15:27:25.089Z,28.12
2017-11-15T15:29:52.569Z,29.83
2017-11-15T15:32:20.801Z,33.47
2017-11-15T15:34:48.415Z,31.35
2017-11-15T15:37:15.881Z,33.88
2017-11-15T15:39:43.457Z,30.90
2017-11-15T15:42:11.710Z,29.75
2017-11-15T15:44:39.965Z,31.37
2017-11-15T15:47:07.517Z,32.40
2017-11-15T15:49:35.777Z,34.70
2017-11-15T15:52:04.037Z,30.98
2017-11-15T15:54:32.290Z,34.80
2017-11-15T15:56:59.745Z,33.22
2017-11-15T15:59:27.982Z,34.28
2017-11-15T16:01:56.210Z,29.73
2017-11-15T16:04:23.685Z,34.08
2017-11-15T16:06:51.241Z,34.08
2017-11-15T16:09:19.466Z,34.47
2017-11-15T16:11:46.962Z,30.55
2017-11-15T16:14:14.422Z,33.25
2017-11-15T16:16:41.889Z,34.33
2017-11-15T16:19:09.357Z,35.83
2017-11-15T16:21:36.910Z,35.17
2017-11-15T16:24:05.165Z,32.05
2017-11-15T16:26:32.621Z,32.80
2017-11-15T16:29:00.877Z,31.27
2017-11-15T16:31:29.105Z,38.10
2017-11-15T16:33:56.562Z,36.90
2017-11-15T16:36:24.037Z,31.62
2017-11-15T16:38:51.495Z,36.25
2017-11-15T16:41:18.997Z,31.40
2017-11-15T16:43:47.256Z,34.38
2017-11-15T16:46:15.489Z,33.50
2017-11-15T16:48:42.957Z,33.47
2017-11-15T16:51:10.433Z,36.75
2017-11-15T16:53:37.946Z,32.88
2017-11-15T16:56:06.202Z,31.58
2017-11-15T16:58:33.753Z,34.85
2017-11-15T17:01:01.978Z,29.90
2017-11-15T17:03:29.441Z,39.00
2017-11-15T17:05:56.989Z,33.63
2017-11-15T17:08:24.540Z,31.70
2017-11-15T17:10:52.801Z,31.90
2017-11-15T17:13:21.085Z,36.60
2017-11-15T17:15:48.577Z,31.48
2017-11-15T17:18:16.144Z,30.45
2017-11-15T17:20:44.400Z,27.62
2017-11-15T17:23:11.945Z,36.38
2017-11-15T17:25:40.164Z,29.27
2017-11-15T17:28:07.685Z,41.50
2017-11-15T17:30:35.146Z,37.22
2017-11-15T17:33:02.609Z,31.02
2017-11-15T17:35:30.086Z,32.25
2017-11-15T17:37:58.329Z,36.25
2017-11-15T17:40:25.793Z,32.17
2017-11-15T17:42:54.139Z,39.67
2017-11-15T17:45:22.397Z,32.60
2017-11-15T17:47:49.857Z,35.45
2017-11-15T17:50:18.093Z,45.00
2017-11-15T17:52:45.649Z,35.15
2017-11-15T17:55:13.905Z,31.17
2017-11-15T17:57:41.446Z,32.63
2017-11-15T18:00:08.914Z,33.72
2017-11-15T18:02:36.397Z,32.72
2017-11-15T18:05:03.862Z,34.85
2017-11-15T18:07:31.413Z,28.77
2017-11-15T18:09:58.969Z,36.22
2017-11-15T18:12:27.193Z,32.35
2017-11-15T18:14:54.876Z,34.50
2017-11-15T18:17:23.100Z,35.55
2017-11-15T18:19:50.669Z,31.08
2017-11-15T18:22:18.145Z,31.65
2017-11-15T18:24:45.653Z,37.03
2017-11-15T18:27:13.150Z,30.42
2017-11-15T18:29:40.644Z,31.75
2017-11-15T18:32:08.897Z,36.17
2017-11-15T18:34:36.446Z,32.08
2017-11-15T18:37:04.665Z,32.00
2017-11-15T18:39:32.128Z,28.83
2017-11-15T18:41:59.602Z,32.60
2017-11-15T18:44:27.117Z,36.60
2017-11-15T18:46:54.586Z,32.63
2017-11-15T18:49:22.860Z,30.10
2017-11-15T18:51:50.379Z,30.17
2017-11-15T18:54:18.630Z,28.33
2017-11-15T18:56:46.929Z,30.40
2017-11-15T18:59:14.475Z,28.77
2017-11-15T19:01:42.003Z,28.45
2017-11-15T19:04:09.586Z,25.80
2017-11-15T19:06:37.124Z,27.27
2017-11-15T19:09:04.703Z,24.37
2017-11-15T19:11:32.228Z,29.33
2017-11-15T19:13:59.853Z,29.95
2017-11-15T19:16:27.501Z,28.25
2017-11-15T19:18:56.037Z,26.65
2017-11-15T19:21:23.956Z,31.75
2017-11-15T19:23:51.917Z,29.73
2017-11-15T19:26:19.798Z,28.55
2017-11-15T19:28:48.463Z,25.98
2017-11-15T19:31:16.415Z,24.77
2017-11-15T19:33:44.371Z,24.45
2017-11-15T19:36:12.305Z,22.60
2017-11-15T19:38:40.150Z,23.35
2017-11-15T19:41:08.026Z,21.17
2017-11-15T19:43:35.982Z,21.98
2017-11-15T19:46:03.930Z,23.45
2017-11-15T19:48:31.884Z,23.77
2017-11-15T19:50:59.841Z,24.63
2017-11-15T19:53:27.788Z,20.75
2017-11-15T19:55:55.620Z,21.10
2017-11-15T19:58:23.592Z,21.23
2017-11-15T20:00:51.444Z,18.12
2017-11-15T20:03:19.397Z,19.83
2017-11-15T20:05:47.569Z,22.23
2017-11-15T20:08:16.426Z,18.15
2017-11-15T20:10:44.283Z,19.33
2017-11-15T20:13:12.338Z,24.42
2017-11-15T20:15:40.257Z,19.33
2017-11-15T20:18:08.055Z,18.87
2017-11-15T20:20:36.118Z,19.20
2017-11-15T20:23:04.883Z,20.40
2017-11-15T20:25:32.835Z,17.08
2017-11-15T20:28:00.866Z,23.50
2017-11-15T20:30:28.740Z,24.10
2017-11-15T20:32:56.591Z,19.52
2017-11-15T20:35:24.441Z,21.92
2017-11-15T20:37:52.393Z,20.55
2017-11-15T20:40:20.245Z,19.95
2017-11-15T20:42:48.205Z,22.67
2017-11-15T20:45:16.051Z,16.95
2017-11-15T20:47:43.900Z,19.10
2017-11-15T20:50:11.594Z,19.58
2017-11-15T20:52:39.396Z,18.90
2017-11-15T20:55:07.036Z,18.42
2017-11-15T20:57:34.658Z,20.02
2017-11-15T21:00:02.296Z,19.73
2017-11-15T21:02:29.878Z,19.23
2017-11-15T21:04:57.444Z,22.25
2017-11-15T21:07:24.992Z,18.17
2017-11-15T21:09:52.499Z,17.25
2017-11-15T21:12:20.009Z,19.83
2017-11-15T21:14:48.318Z,19.62
2017-11-15T21:17:15.782Z,20.33
2017-11-15T21:19:43.270Z,19.17
2017-11-15T21:22:10.790Z,17.65
2017-11-15T21:24:39.028Z,18.00
2017-11-15T21:27:06.593Z,16.27
2017-11-15T21:29:34.856Z,18.70
2017-11-15T21:32:03.113Z,17.55
2017-11-15T21:34:31.358Z,27.27
2017-11-15T21:36:59.641Z,19.70
2017-11-15T21:39:27.949Z,20.60
2017-11-15T21:41:55.554Z,15.75
2017-11-15T21:44:23.088Z,15.50
2017-11-15T21:46:50.542Z,21.27
2017-11-15T21:49:18.777Z,19.30
2017-11-15T21:51:47.756Z,20.98
2017-11-15T21:54:16.230Z,22.90
2017-11-15T21:56:44.601Z,21.27
2017-11-15T21:59:12.847Z,18.58
2017-11-15T22:01:40.392Z,16.90
2017-11-15T22:04:08.046Z,18.15
2017-11-15T22:09:11.105Z,18.80
2017-11-15T22:11:38.681Z,22.00
2017-11-15T22:14:06.892Z,18.42
2017-11-15T22:16:34.369Z,20.23
2017-11-15T22:19:02.609Z,18.27
2017-11-15T22:21:30.065Z,20.48
2017-11-15T22:23:58.337Z,25.33
2017-11-15T22:26:26.609Z,24.10
2017-11-15T22:28:54.113Z,25.05
2017-11-15T22:31:21.597Z,27.02
2017-11-15T22:33:49.491Z,25.75
2017-11-15T22:36:16.945Z,29.77
2017-11-15T22:38:45.182Z,32.17
2017-11-15T22:41:12.662Z,25.92
2017-11-15T22:43:40.910Z,30.52
2017-11-15T22:46:08.487Z,28.67
2017-11-15T22:48:36.698Z,31.75
2017-11-15T22:51:04.211Z,27.73
2017-11-15T22:53:31.710Z,31.92
2017-11-15T22:55:59.966Z,27.42
2017-11-15T22:58:27.514Z,32.72
2017-11-15T23:00:55.741Z,34.00
2017-11-15T23:03:23.313Z,28.35
2017-11-15T23:05:50.820Z,31.80
2017-11-15T23:08:18.282Z,28.77
2017-11-15T23:10:45.737Z,31.90
2017-11-15T23:13:13.997Z,26.33
2017-11-15T23:15:42.261Z,27.92
2017-11-15T23:18:09.725Z,29.95
2017-11-15T23:20:37.187Z,27.40
2017-11-15T23:23:04.645Z,29.70
2017-11-15T23:25:32.109Z,29.50
2017-11-15T23:28:00.365Z,30.27
2017-11-15T23:30:27.930Z,37.90
2017-11-15T23:32:55.385Z,24.15
2017-11-15T23:35:23.642Z,29.75
2017-11-15T23:37:51.884Z,32.15
2017-11-15T23:40:19.433Z,24.60
2017-11-15T23:42:46.976Z,25.08
2017-11-15T23:45:14.437Z,29.45
2017-11-15T23:47:42.733Z,28.80
2017-11-15T23:50:10.276Z,30.88
2017-11-15T23:52:37.741Z,24.92
2017-11-15T23:55:05.205Z,28.90
2017-11-15T23:57:32.685Z,25.12
